Ruth, Mississippi
Current Conditions -  °F | °C
As of 3:53 PM on Wednesday 28 Jan 2015 (Local Time) from KMCB Reporting Station
Clear Clear  
Wind Chill: 69°   Ceiling: Unl
Heat Index: 69°   Visibility: 10mi
Dew Point: 38°   Wind: 9mph
Humidity: 32%   Direction: 160°SSE
Pressure: 30.2"   Gusts: NA
Location:  31.38°N, 90.32°W
Report Text: KMCB 282153Z AUTO 16008KT 10SM CLR 21/03 A3020 RMK AO2 SLP225 T02060033
Loading
Personal Weather Stations






























Interactive Weather Map New forecast layout! Learn more

10-Day Weather Forecast

Advertisements
Track Severe Weather on mobile